Time,TemperatureF,DewpointF,PressureIn,WindDirection,WindDirectionDegrees,WindSpeedMPH,WindSpeedGustMPH,Humidity,HourlyPrecipIn,Conditions,Clouds,dailyrainin,SoftwareType,DateUTC
2013-02-01 00:01:00,46.0,-99.9,30.36,East,100,4.0,5.0,-999,-99.99,,,-99.99,,2013-02-01 08:01:00,
2013-02-01 00:11:00,46.0,-99.9,30.36,ESE,108,5.0,6.0,-999,-99.99,,,-99.99,,2013-02-01 08:11:00,
2013-02-01 00:22:00,46.0,-99.9,30.36,SE,132,3.0,3.0,-999,-99.99,,,-99.99,,2013-02-01 08:22:00,
2013-02-01 00:32:00,46.0,-99.9,30.36,ESE,104,2.0,3.0,-999,-99.99,,,-99.99,,2013-02-01 08:32:00,
2013-02-01 00:42:00,46.0,-99.9,30.36,ESE,105,3.0,5.0,-999,-99.99,,,-99.99,,2013-02-01 08:42:00,
2013-02-01 00:52:00,46.0,-99.9,30.36,ESE,114,4.0,6.0,-999,-99.99,,,-99.99,,2013-02-01 08:52:00,
2013-02-01 01:02:00,46.0,-99.9,30.36,ESE,114,2.0,4.0,-999,-99.99,,,-99.99,,2013-02-01 09:02:00,
2013-02-01 01:11:00,46.0,-99.9,30.36,ESE,105,3.0,4.0,-999,-99.99,,,-99.99,,2013-02-01 09:11:00,
2013-02-01 01:22:00,46.0,-99.9,30.36,ESE,109,4.0,5.0,-999,-99.99,,,-99.99,,2013-02-01 09:22:00,
2013-02-01 01:32:00,46.0,-99.9,30.36,ESE,113,4.0,5.0,-999,-99.99,,,-99.99,,2013-02-01 09:32:00,
2013-02-01 01:42:00,47.0,-99.9,30.36,ESE,121,3.0,4.0,-999,-99.99,,,-99.99,,2013-02-01 09:42:00,
2013-02-01 01:52:00,47.0,-99.9,30.37,East,99,4.0,5.0,-999,-99.99,,,-99.99,,2013-02-01 09:52:00,
2013-02-01 02:01:00,47.0,-99.9,30.37,ESE,104,4.0,5.0,-999,-99.99,,,-99.99,,2013-02-01 10:01:00,
2013-02-01 02:11:00,47.0,-99.9,30.37,SE,128,1.0,4.0,-999,-99.99,,,-99.99,,2013-02-01 10:11:00,
2013-02-01 02:21:00,46.0,-99.9,30.37,East,96,3.0,4.0,-999,-99.99,,,-99.99,,2013-02-01 10:21:00,
2013-02-01 02:32:00,46.0,-99.9,30.37,East,96,5.0,6.0,-999,-99.99,,,-99.99,,2013-02-01 10:32:00,
2013-02-01 02:43:00,46.0,-99.9,30.37,East,99,3.0,5.0,-999,-99.99,,,-99.99,,2013-02-01 10:43:00,
2013-02-01 02:53:00,45.0,-99.9,30.36,SSE,149,2.0,4.0,-999,-99.99,,,-99.99,,2013-02-01 10:53:00,
2013-02-01 03:02:00,45.0,-99.9,30.36,East,100,1.0,3.0,-999,-99.99,,,-99.99,,2013-02-01 11:02:00,
2013-02-01 03:11:00,45.0,-99.9,30.36,NNW,333,2.0,2.0,-999,-99.99,,,-99.99,,2013-02-01 11:11:00,
2013-02-01 03:22:00,45.0,-99.9,30.36,NNW,340,4.0,5.0,-999,-99.99,,,-99.99,,2013-02-01 11:22:00,
2013-02-01 03:32:00,45.0,-99.9,30.36,NNW,338,3.0,4.0,-999,-99.99,,,-99.99,,2013-02-01 11:32:00,
2013-02-01 03:42:00,44.0,-99.9,30.37,NW,309,3.0,3.0,-999,-99.99,,,-99.99,,2013-02-01 11:42:00,
2013-02-01 03:53:00,44.0,-99.9,30.36,WNW,294,3.0,4.0,-999,-99.99,,,-99.99,,2013-02-01 11:53:00,
2013-02-01 04:03:00,44.0,-99.9,30.37,WNW,296,3.0,4.0,-999,-99.99,,,-99.99,,2013-02-01 12:03:00,
2013-02-01 04:12:00,44.0,-99.9,30.37,NW,325,2.0,4.0,-999,-99.99,,,-99.99,,2013-02-01 12:12:00,
2013-02-01 04:23:00,44.0,-99.9,30.37,NNW,329,2.0,3.0,-999,-99.99,,,-99.99,,2013-02-01 12:23:00,
2013-02-01 04:32:00,44.0,-99.9,30.37,North,6,1.0,3.0,-999,-99.99,,,-99.99,,2013-02-01 12:32:00,
2013-02-01 04:42:00,44.0,-99.9,30.37,North,5,1.0,2.0,-999,-99.99,,,-99.99,,2013-02-01 12:42:00,
2013-02-01 04:52:00,44.0,-99.9,30.37,NNW,343,2.0,3.0,-999,-99.99,,,-99.99,,2013-02-01 12:52:00,
2013-02-01 05:02:00,44.0,-99.9,30.37,NNW,328,1.0,2.0,-999,-99.99,,,-99.99,,2013-02-01 13:02:00,
2013-02-01 05:12:00,44.0,-99.9,30.37,North,11,2.0,2.0,-999,-99.99,,,-99.99,,2013-02-01 13:12:00,
2013-02-01 05:22:00,44.0,-99.9,30.37,NW,308,3.0,4.0,-999,-99.99,,,-99.99,,2013-02-01 13:22:00,
2013-02-01 05:33:00,44.0,-99.9,30.37,WNW,303,3.0,4.0,-999,-99.99,,,-99.99,,2013-02-01 13:33:00,
2013-02-01 05:43:00,43.0,-99.9,30.37,WNW,282,2.0,2.0,-999,-99.99,,,-99.99,,2013-02-01 13:43:00,
2013-02-01 05:53:00,44.0,-99.9,30.37,SSW,210,-999.0,2.0,-999,-99.99,,,-99.99,,2013-02-01 13:53:00,
2013-02-01 06:03:00,44.0,-99.9,30.36,ESE,103,2.0,2.0,-999,-99.99,,,-99.99,,2013-02-01 14:03:00,
2013-02-01 06:12:00,44.0,-99.9,30.36,ESE,112,2.0,2.0,-999,-99.99,,,-99.99,,2013-02-01 14:12:00,
2013-02-01 06:22:00,44.0,-99.9,30.36,ESE,114,1.0,2.0,-999,-99.99,,,-99.99,,2013-02-01 14:22:00,
2013-02-01 06:33:00,44.0,-99.9,30.36,ESE,107,2.0,2.0,-999,-99.99,,,-99.99,,2013-02-01 14:33:00,
2013-02-01 06:42:00,44.0,-99.9,30.36,East,99,2.0,2.0,-999,-99.99,,,-99.99,,2013-02-01 14:42:00,
2013-02-01 06:53:00,44.0,-99.9,30.36,ESE,121,3.0,4.0,-999,-99.99,,,-99.99,,2013-02-01 14:53:00,
2013-02-01 07:03:00,44.0,-99.9,30.36,ESE,119,3.0,5.0,-999,-99.99,,,-99.99,,2013-02-01 15:03:00,
2013-02-01 07:12:00,43.0,-99.9,30.36,East,84,3.0,5.0,-999,-99.99,,,-99.99,,2013-02-01 15:12:00,
2013-02-01 07:22:00,44.0,-99.9,30.36,East,80,2.0,3.0,-999,-99.99,,,-99.99,,2013-02-01 15:22:00,
2013-02-01 07:33:00,44.0,-99.9,30.36,East,90,1.0,3.0,-999,-99.99,,,-99.99,,2013-02-01 15:33:00,
2013-02-01 07:42:00,44.0,-99.9,30.35,SE,135,2.0,2.0,-999,-99.99,,,-99.99,,2013-02-01 15:42:00,
2013-02-01 07:52:00,43.0,-99.9,30.35,ESE,120,1.0,2.0,-999,-99.99,,,-99.99,,2013-02-01 15:52:00,
2013-02-01 08:03:00,43.0,-99.9,30.36,North,-999,-999.0,-999.0,-999,-99.99,,,-99.99,,2013-02-01 16:03:00,
2013-02-01 08:12:00,43.0,-99.9,30.36,North,358,2.0,2.0,-999,-99.99,,,-99.99,,2013-02-01 16:12:00,
2013-02-01 08:22:00,44.0,-99.9,30.36,NW,324,2.0,3.0,-999,-99.99,,,-99.99,,2013-02-01 16:22:00,
2013-02-01 08:33:00,44.0,-99.9,30.36,NNW,342,1.0,2.0,-999,-99.99,,,-99.99,,2013-02-01 16:33:00,
2013-02-01 08:43:00,44.0,-99.9,30.37,WNW,293,2.0,3.0,-999,-99.99,,,-99.99,,2013-02-01 16:43:00,
2013-02-01 08:53:00,44.0,-99.9,30.37,NW,305,1.0,2.0,-999,-99.99,,,-99.99,,2013-02-01 16:53:00,
2013-02-01 09:03:00,44.0,-99.9,30.37,NNW,339,1.0,2.0,-999,-99.99,,,-99.99,,2013-02-01 17:03:00,
2013-02-01 09:12:00,44.0,-99.9,30.37,NE,38,-999.0,1.0,-999,-99.99,,,-99.99,,2013-02-01 17:12:00,
2013-02-01 09:22:00,43.0,-99.9,30.38,North,-999,-999.0,-999.0,-999,-99.99,,,-99.99,,2013-02-01 17:22:00,
2013-02-01 09:32:00,43.0,-99.9,30.38,SSE,153,1.0,3.0,-999,-99.99,,,-99.99,,2013-02-01 17:32:00,
2013-02-01 09:42:00,43.0,-99.9,30.38,SE,142,2.0,3.0,-999,-99.99,,,-99.99,,2013-02-01 17:42:00,
2013-02-01 09:53:00,43.0,-99.9,30.38,SE,139,1.0,2.0,-999,-99.99,,,-99.99,,2013-02-01 17:53:00,
2013-02-01 10:03:00,43.0,-99.9,30.38,ESE,103,1.0,3.0,-999,-99.99,,,-99.99,,2013-02-01 18:03:00,
2013-02-01 10:12:00,43.0,-99.9,30.38,ESE,121,1.0,2.0,-999,-99.99,,,-99.99,,2013-02-01 18:12:00,
2013-02-01 10:23:00,44.0,-99.9,30.39,SE,133,1.0,3.0,-999,-99.99,,,-99.99,,2013-02-01 18:23:00,
2013-02-01 10:33:00,44.0,-99.9,30.39,ESE,120,1.0,2.0,-999,-99.99,,,-99.99,,2013-02-01 18:33:00,
2013-02-01 10:42:00,44.0,-99.9,30.39,SE,135,2.0,2.0,-999,-99.99,,,-99.99,,2013-02-01 18:42:00,
2013-02-01 10:53:00,44.0,-99.9,30.39,SE,144,2.0,3.0,-999,-99.99,,,-99.99,,2013-02-01 18:53:00,
2013-02-01 11:03:00,44.0,-99.9,30.40,SE,130,2.0,3.0,-999,-99.99,,,-99.99,,2013-02-01 19:03:00,
2013-02-01 11:12:00,45.0,-99.9,30.40,SE,130,-999.0,2.0,-999,-99.99,,,-99.99,,2013-02-01 19:12:00,
2013-02-01 11:22:00,46.0,-99.9,30.39,South,188,-999.0,2.0,-999,-99.99,,,-99.99,,2013-02-01 19:22:00,
2013-02-01 11:33:00,46.0,-99.9,30.39,SW,229,2.0,3.0,-999,-99.99,,,-99.99,,2013-02-01 19:33:00,
2013-02-01 11:42:00,45.0,-99.9,30.39,WSW,242,2.0,3.0,-999,-99.99,,,-99.99,,2013-02-01 19:42:00,
2013-02-01 11:52:00,46.0,-99.9,30.39,WSW,248,2.0,3.0,-999,-99.99,,,-99.99,,2013-02-01 19:52:00,
2013-02-01 12:02:00,46.0,-99.9,30.39,West,262,2.0,3.0,-999,-99.99,,,-99.99,,2013-02-01 20:02:00,
2013-02-01 12:12:00,47.0,-99.9,30.38,WSW,250,1.0,2.0,-999,-99.99,,,-99.99,,2013-02-01 20:12:00,
2013-02-01 12:22:00,46.0,-99.9,30.38,WSW,237,0.0,2.0,-999,-99.99,,,-99.99,,2013-02-01 20:22:00,
2013-02-01 12:32:00,47.0,-99.9,30.38,WNW,296,3.0,4.0,-999,-99.99,,,-99.99,,2013-02-01 20:32:00,
2013-02-01 12:42:00,46.0,-99.9,30.37,WSW,239,1.0,2.0,-999,-99.99,,,-99.99,,2013-02-01 20:42:00,
2013-02-01 12:52:00,47.0,-99.9,30.37,West,268,1.0,3.0,-999,-99.99,,,-99.99,,2013-02-01 20:52:00,
2013-02-01 13:02:00,48.0,-99.9,30.37,WNW,297,3.0,5.0,-999,-99.99,,,-99.99,,2013-02-01 21:02:00,
2013-02-01 13:12:00,47.0,-99.9,30.37,WNW,293,6.0,7.0,-999,-99.99,,,-99.99,,2013-02-01 21:12:00,
2013-02-01 13:22:00,48.0,-99.9,30.36,WNW,302,4.0,7.0,-999,-99.99,,,-99.99,,2013-02-01 21:22:00,
2013-02-01 13:32:00,47.0,-99.9,30.36,WNW,292,7.0,7.0,-999,-99.99,,,-99.99,,2013-02-01 21:32:00,
2013-02-01 13:42:00,48.0,-99.9,30.35,WNW,293,5.0,7.0,-999,-99.99,,,-99.99,,2013-02-01 21:42:00,
2013-02-01 13:53:00,47.0,-99.9,30.35,West,278,4.0,5.0,-999,-99.99,,,-99.99,,2013-02-01 21:53:00,
2013-02-01 14:03:00,48.0,-99.9,30.34,West,281,5.0,6.0,-999,-99.99,,,-99.99,,2013-02-01 22:03:00,
2013-02-01 14:11:00,48.0,-99.9,30.34,West,278,5.0,6.0,-999,-99.99,,,-99.99,,2013-02-01 22:11:00,
2013-02-01 14:22:00,49.0,-99.9,30.34,NW,316,2.0,6.0,-999,-99.99,,,-99.99,,2013-02-01 22:22:00,
2013-02-01 14:32:00,49.0,-99.9,30.33,West,273,2.0,5.0,-999,-99.99,,,-99.99,,2013-02-01 22:32:00,
2013-02-01 14:42:00,49.0,-99.9,30.33,West,272,3.0,4.0,-999,-99.99,,,-99.99,,2013-02-01 22:42:00,
2013-02-01 14:52:00,50.0,-99.9,30.33,WNW,296,5.0,6.0,-999,-99.99,,,-99.99,,2013-02-01 22:52:00,
2013-02-01 15:02:00,50.0,-99.9,30.33,West,278,6.0,7.0,-999,-99.99,,,-99.99,,2013-02-01 23:02:00,
2013-02-01 15:11:00,50.0,-99.9,30.33,WNW,287,4.0,6.0,-999,-99.99,,,-99.99,,2013-02-01 23:11:00,
2013-02-01 15:22:00,51.0,-99.9,30.33,NW,310,4.0,6.0,-999,-99.99,,,-99.99,,2013-02-01 23:22:00,
2013-02-01 15:32:00,52.0,-99.9,30.32,NNW,342,7.0,10.0,-999,-99.99,,,-99.99,,2013-02-01 23:32:00,
2013-02-01 15:42:00,52.0,-99.9,30.32,NNW,348,9.0,11.0,-999,-99.99,,,-99.99,,2013-02-01 23:42:00,
2013-02-01 15:52:00,52.0,-99.9,30.32,NNW,348,8.0,10.0,-999,-99.99,,,-99.99,,2013-02-01 23:52:00,
2013-02-01 16:02:00,52.0,-99.9,30.32,North,5,4.0,9.0,-999,-99.99,,,-99.99,,2013-02-02 00:02:00,
2013-02-01 16:11:00,52.0,-99.9,30.32,North,349,6.0,12.0,-999,-99.99,,,-99.99,,2013-02-02 00:11:00,
2013-02-01 16:22:00,52.0,-99.9,30.31,NNW,346,7.0,11.0,-999,-99.99,,,-99.99,,2013-02-02 00:22:00,
2013-02-01 16:32:00,52.0,-99.9,30.31,NNW,348,7.0,9.0,-999,-99.99,,,-99.99,,2013-02-02 00:32:00,
2013-02-01 16:42:00,52.0,-99.9,30.31,NNW,347,5.0,7.0,-999,-99.99,,,-99.99,,2013-02-02 00:42:00,
2013-02-01 16:52:00,52.0,-99.9,30.31,North,349,6.0,9.0,-999,-99.99,,,-99.99,,2013-02-02 00:52:00,
2013-02-01 17:03:00,52.0,-99.9,30.31,North,354,6.0,8.0,-999,-99.99,,,-99.99,,2013-02-02 01:03:00,
2013-02-01 17:11:00,51.0,-99.9,30.31,NNW,339,4.0,8.0,-999,-99.99,,,-99.99,,2013-02-02 01:11:00,
2013-02-01 17:22:00,51.0,-99.9,30.31,NNW,339,5.0,8.0,-999,-99.99,,,-99.99,,2013-02-02 01:22:00,
2013-02-01 17:32:00,51.0,-99.9,30.31,North,355,5.0,7.0,-999,-99.99,,,-99.99,,2013-02-02 01:32:00,
2013-02-01 17:42:00,50.0,-99.9,30.31,North,359,4.0,7.0,-999,-99.99,,,-99.99,,2013-02-02 01:42:00,
2013-02-01 17:52:00,50.0,-99.9,30.31,NW,304,1.0,4.0,-999,-99.99,,,-99.99,,2013-02-02 01:52:00,
2013-02-01 18:01:00,50.0,-99.9,30.31,WNW,299,-999.0,2.0,-999,-99.99,,,-99.99,,2013-02-02 02:01:00,
2013-02-01 18:11:00,49.0,-99.9,30.31,NNW,338,1.0,5.0,-999,-99.99,,,-99.99,,2013-02-02 02:11:00,
2013-02-01 18:22:00,49.0,-99.9,30.32,NW,322,3.0,6.0,-999,-99.99,,,-99.99,,2013-02-02 02:22:00,
2013-02-01 18:32:00,49.0,-99.9,30.32,WNW,291,2.0,4.0,-999,-99.99,,,-99.99,,2013-02-02 02:32:00,
2013-02-01 18:42:00,48.0,-99.9,30.32,North,358,1.0,4.0,-999,-99.99,,,-99.99,,2013-02-02 02:42:00,
2013-02-01 18:52:00,48.0,-99.9,30.32,NNW,333,1.0,3.0,-999,-99.99,,,-99.99,,2013-02-02 02:52:00,
2013-02-01 19:02:00,48.0,-99.9,30.32,SSW,193,1.0,3.0,-999,-99.99,,,-99.99,,2013-02-02 03:02:00,
2013-02-01 19:11:00,47.0,-99.9,30.32,NW,318,1.0,3.0,-999,-99.99,,,-99.99,,2013-02-02 03:11:00,
2013-02-01 19:22:00,47.0,-99.9,30.33,WSW,252,1.0,3.0,-999,-99.99,,,-99.99,,2013-02-02 03:22:00,
2013-02-01 19:32:00,47.0,-99.9,30.33,ESE,120,1.0,3.0,-999,-99.99,,,-99.99,,2013-02-02 03:32:00,
2013-02-01 19:42:00,47.0,-99.9,30.33,NNW,333,0.0,2.0,-999,-99.99,,,-99.99,,2013-02-02 03:42:00,
2013-02-01 19:52:00,47.0,-99.9,30.33,NNW,329,0.0,3.0,-999,-99.99,,,-99.99,,2013-02-02 03:52:00,
2013-02-01 20:02:00,46.0,-99.9,30.33,South,183,-999.0,2.0,-999,-99.99,,,-99.99,,2013-02-02 04:02:00,
2013-02-01 20:11:00,46.0,-99.9,30.34,WNW,289,2.0,3.0,-999,-99.99,,,-99.99,,2013-02-02 04:11:00,
2013-02-01 20:22:00,46.0,-99.9,30.34,NNW,338,-999.0,8.0,-999,-99.99,,,-99.99,,2013-02-02 04:22:00,
2013-02-01 20:33:00,46.0,-99.9,30.34,North,350,4.0,7.0,-999,-99.99,,,-99.99,,2013-02-02 04:33:00,
2013-02-01 20:42:00,46.0,-99.9,30.34,North,354,1.0,6.0,-999,-99.99,,,-99.99,,2013-02-02 04:42:00,
2013-02-01 20:52:00,46.0,-99.9,30.34,North,349,4.0,6.0,-999,-99.99,,,-99.99,,2013-02-02 04:52:00,
2013-02-01 21:03:00,46.0,-99.9,30.34,NNW,345,3.0,4.0,-999,-99.99,,,-99.99,,2013-02-02 05:03:00,
2013-02-01 21:12:00,45.0,-99.9,30.34,North,3,3.0,4.0,-999,-99.99,,,-99.99,,2013-02-02 05:12:00,
2013-02-01 21:22:00,45.0,-99.9,30.34,NNW,348,3.0,4.0,-999,-99.99,,,-99.99,,2013-02-02 05:22:00,
2013-02-01 21:33:00,45.0,-99.9,30.34,North,4,2.0,5.0,-999,-99.99,,,-99.99,,2013-02-02 05:33:00,
2013-02-01 21:42:00,45.0,-99.9,30.34,NNW,337,2.0,4.0,-999,-99.99,,,-99.99,,2013-02-02 05:42:00,
2013-02-01 21:52:00,45.0,-99.9,30.34,NNW,339,2.0,4.0,-999,-99.99,,,-99.99,,2013-02-02 05:52:00,
2013-02-01 22:02:00,44.0,-99.9,30.34,NW,320,2.0,3.0,-999,-99.99,,,-99.99,,2013-02-02 06:02:00,
2013-02-01 22:12:00,44.0,-99.9,30.34,SE,132,-999.0,2.0,-999,-99.99,,,-99.99,,2013-02-02 06:12:00,
2013-02-01 22:22:00,44.0,-99.9,30.34,NW,322,1.0,2.0,-999,-99.99,,,-99.99,,2013-02-02 06:22:00,
2013-02-01 22:32:00,44.0,-99.9,30.34,SW,223,-999.0,2.0,-999,-99.99,,,-99.99,,2013-02-02 06:32:00,
2013-02-01 22:42:00,44.0,-99.9,30.34,NNW,346,-999.0,4.0,-999,-99.99,,,-99.99,,2013-02-02 06:42:00,
2013-02-01 22:52:00,44.0,-99.9,30.34,West,268,1.0,3.0,-999,-99.99,,,-99.99,,2013-02-02 06:52:00,
2013-02-01 23:02:00,44.0,-99.9,30.34,SSE,147,0.0,2.0,-999,-99.99,,,-99.99,,2013-02-02 07:02:00,
2013-02-01 23:12:00,44.0,-99.9,30.33,South,174,2.0,3.0,-999,-99.99,,,-99.99,,2013-02-02 07:12:00,
2013-02-01 23:21:00,44.0,-99.9,30.34,North,359,1.0,2.0,-999,-99.99,,,-99.99,,2013-02-02 07:21:00,
2013-02-01 23:32:00,44.0,-99.9,30.34,NNW,328,0.0,5.0,-999,-99.99,,,-99.99,,2013-02-02 07:32:00,
2013-02-01 23:42:00,44.0,-99.9,30.34,NNE,30,0.0,2.0,-999,-99.99,,,-99.99,,2013-02-02 07:42:00,
2013-02-01 23:52:00,44.0,-99.9,30.34,NW,325,2.0,4.0,-999,-99.99,,,-99.99,,2013-02-02 07:52:00,